createdAt,value
2018-03-18T00:02:42.853Z,60.79
2018-03-18T00:05:11.689Z,60.69
2018-03-18T00:07:39.280Z,60.21
2018-03-18T00:10:06.839Z,60.36
2018-03-18T00:12:34.367Z,61.03
2018-03-18T00:15:01.902Z,60.67
2018-03-18T00:17:29.473Z,61.18
2018-03-18T00:19:57.029Z,61.45
2018-03-18T00:22:24.592Z,60.24
2018-03-18T00:24:52.111Z,60.27
2018-03-18T00:27:19.656Z,60.23
2018-03-18T00:29:47.206Z,61.62
2018-03-18T00:32:14.732Z,61.24
2018-03-18T00:34:43.424Z,60.23
2018-03-18T00:37:10.983Z,60.11
2018-03-18T00:39:38.582Z,60.99
2018-03-18T00:42:06.134Z,59.88
2018-03-18T00:44:33.672Z,60.58
2018-03-18T00:47:01.191Z,59.80
2018-03-18T00:49:28.727Z,60.25
2018-03-18T00:52:01.073Z,59.98
2018-03-18T00:54:28.593Z,59.80
2018-03-18T00:56:56.141Z,61.25
2018-03-18T00:59:23.679Z,60.66
2018-03-18T01:01:51.230Z,61.08
2018-03-18T01:04:18.802Z,60.47
2018-03-18T01:06:46.352Z,60.47
2018-03-18T01:09:13.860Z,60.42
2018-03-18T01:11:41.371Z,60.21
2018-03-18T01:14:08.900Z,61.29
2018-03-18T01:16:36.463Z,61.28
2018-03-18T01:19:04.002Z,61.41
2018-03-18T01:21:31.542Z,61.32
2018-03-18T01:23:59.065Z,60.36
2018-03-18T01:26:26.593Z,61.04
2018-03-18T01:28:54.191Z,61.68
2018-03-18T01:31:21.752Z,62.25
2018-03-18T01:33:49.288Z,62.49
2018-03-18T01:36:16.879Z,61.98
2018-03-18T01:38:44.531Z,61.80
2018-03-18T01:41:12.078Z,61.61
2018-03-18T01:43:40.087Z,62.77
2018-03-18T01:46:07.642Z,61.07
2018-03-18T01:48:35.145Z,61.22
2018-03-18T01:51:02.687Z,61.04
2018-03-18T01:53:30.244Z,61.39
2018-03-18T01:55:57.753Z,62.53
2018-03-18T01:58:25.272Z,61.58
2018-03-18T02:00:52.780Z,61.99
2018-03-18T02:03:20.357Z,61.88
2018-03-18T02:05:47.921Z,61.88
2018-03-18T02:08:15.475Z,61.44
2018-03-18T02:10:43.004Z,62.50
2018-03-18T02:13:10.694Z,61.56
2018-03-18T02:15:38.258Z,61.78
2018-03-18T02:18:05.820Z,61.33
2018-03-18T02:20:33.393Z,61.08
2018-03-18T02:23:00.933Z,62.34
2018-03-18T02:25:28.437Z,61.42
2018-03-18T02:27:56.019Z,61.87
2018-03-18T02:30:23.582Z,61.59
2018-03-18T02:32:51.138Z,61.87
2018-03-18T02:35:18.662Z,61.75
2018-03-18T02:37:46.222Z,61.68
2018-03-18T02:40:13.730Z,62.17
2018-03-18T02:42:41.277Z,62.34
2018-03-18T02:45:08.823Z,61.68
2018-03-18T02:47:36.412Z,62.21
2018-03-18T02:50:04.019Z,63.34
2018-03-18T02:52:31.567Z,62.04
2018-03-18T02:54:59.136Z,61.98
2018-03-18T02:57:26.678Z,62.21
2018-03-18T02:59:54.247Z,62.09
2018-03-18T03:02:21.748Z,62.32
2018-03-18T03:04:49.310Z,62.26
2018-03-18T03:07:16.849Z,63.34
2018-03-18T03:09:44.406Z,62.34
2018-03-18T03:12:11.973Z,62.68
2018-03-18T03:14:39.482Z,63.14
2018-03-18T03:17:07.063Z,63.50
2018-03-18T03:19:34.560Z,62.79
2018-03-18T03:22:02.191Z,62.82
2018-03-18T03:24:29.734Z,64.49
2018-03-18T03:26:57.234Z,63.22
2018-03-18T03:29:24.811Z,63.71
2018-03-18T03:31:52.341Z,62.80
2018-03-18T03:34:19.852Z,63.19
2018-03-18T03:36:47.353Z,64.45
2018-03-18T03:39:14.947Z,63.99
2018-03-18T03:41:42.473Z,62.83
2018-03-18T03:44:09.988Z,63.00
2018-03-18T03:46:37.490Z,63.31
2018-03-18T03:49:05.015Z,63.56
2018-03-18T03:51:32.557Z,63.55
2018-03-18T03:54:00.073Z,63.86
2018-03-18T03:56:27.610Z,63.60
2018-03-18T03:58:55.108Z,63.54
2018-03-18T04:01:22.688Z,63.78
2018-03-18T04:03:50.217Z,64.33
2018-03-18T04:06:17.745Z,65.92
2018-03-18T04:08:45.284Z,64.54
2018-03-18T04:11:12.841Z,64.60
2018-03-18T04:13:40.365Z,64.20
2018-03-18T04:16:07.883Z,64.52
2018-03-18T04:18:35.399Z,64.62
2018-03-18T04:21:02.901Z,65.92
2018-03-18T04:23:30.440Z,64.80
2018-03-18T04:25:57.964Z,64.65
2018-03-18T04:28:25.494Z,64.89
2018-03-18T04:30:53.045Z,64.91
2018-03-18T04:33:20.563Z,64.82
2018-03-18T04:35:48.115Z,64.57
2018-03-18T04:38:15.665Z,65.04
2018-03-18T04:40:43.168Z,64.37
2018-03-18T04:43:10.688Z,64.95
2018-03-18T04:45:38.204Z,64.62
2018-03-18T04:48:05.711Z,64.79
2018-03-18T04:50:33.299Z,64.47
2018-03-18T04:53:00.816Z,65.04
2018-03-18T04:55:28.370Z,65.66
2018-03-18T04:57:55.861Z,64.96
2018-03-18T05:00:23.410Z,64.47
2018-03-18T05:02:50.914Z,64.65
2018-03-18T05:05:18.409Z,65.28
2018-03-18T05:07:45.920Z,65.71
2018-03-18T05:10:13.463Z,65.27
2018-03-18T05:12:41.037Z,65.42
2018-03-18T05:15:08.557Z,64.72
2018-03-18T05:17:36.128Z,64.88
2018-03-18T05:20:03.660Z,64.72
2018-03-18T05:22:31.165Z,64.07
2018-03-18T05:24:58.767Z,64.58
2018-03-18T05:27:26.282Z,64.28
2018-03-18T05:29:53.802Z,64.37
2018-03-18T05:32:21.347Z,63.92
2018-03-18T05:34:48.925Z,65.02
2018-03-18T05:37:16.458Z,63.91
2018-03-18T05:39:44.007Z,64.27
2018-03-18T05:42:11.532Z,63.75
2018-03-18T05:44:39.049Z,63.92
2018-03-18T05:47:06.591Z,63.77
2018-03-18T05:49:34.144Z,63.72
2018-03-18T05:52:01.640Z,64.16
2018-03-18T05:54:29.138Z,63.48
2018-03-18T05:56:56.682Z,63.01
2018-03-18T05:59:24.228Z,62.98
2018-03-18T06:01:51.760Z,63.65
2018-03-18T06:04:19.315Z,62.91
2018-03-18T06:06:46.855Z,62.68
2018-03-18T06:09:14.382Z,63.70
2018-03-18T06:11:41.884Z,62.57
2018-03-18T06:14:10.272Z,62.60
2018-03-18T06:16:37.782Z,62.17
2018-03-18T06:19:05.308Z,62.40
2018-03-18T06:21:32.867Z,62.50
2018-03-18T06:24:00.394Z,62.07
2018-03-18T06:26:27.974Z,61.20
2018-03-18T06:28:55.510Z,60.79
2018-03-18T06:31:23.055Z,61.97
2018-03-18T06:33:50.613Z,60.77
2018-03-18T06:36:18.143Z,61.05
2018-03-18T06:38:46.081Z,59.86
2018-03-18T06:41:13.642Z,60.77
2018-03-18T06:43:41.471Z,60.06
2018-03-18T06:46:11.408Z,59.97
2018-03-18T06:48:38.969Z,59.98
2018-03-18T06:51:07.551Z,59.01
2018-03-18T06:53:35.036Z,59.00
2018-03-18T06:56:02.562Z,58.16
2018-03-18T06:58:30.057Z,57.23
2018-03-18T07:00:58.760Z,58.03
2018-03-18T07:03:26.279Z,58.74
2018-03-18T07:05:54.104Z,58.71
2018-03-18T07:08:21.657Z,57.87
2018-03-18T07:10:49.162Z,58.29
2018-03-18T07:13:16.696Z,58.01
2018-03-18T07:15:46.672Z,57.36
2018-03-18T07:18:14.225Z,57.39
2018-03-18T07:20:41.741Z,58.26
2018-03-18T07:23:09.285Z,57.46
2018-03-18T07:25:36.896Z,57.62
2018-03-18T07:28:04.396Z,56.90
2018-03-18T07:30:31.988Z,56.83
2018-03-18T07:32:59.577Z,56.38
2018-03-18T07:35:27.131Z,56.11
2018-03-18T07:37:54.650Z,56.87
2018-03-18T07:40:22.246Z,56.74
2018-03-18T07:42:49.839Z,56.03
2018-03-18T07:45:17.374Z,54.64
2018-03-18T07:47:45.015Z,55.53
2018-03-18T07:50:12.588Z,55.39
2018-03-18T07:52:40.211Z,54.95
2018-03-18T07:55:07.737Z,53.57
2018-03-18T07:57:35.386Z,55.11
2018-03-18T08:00:02.958Z,52.73
2018-03-18T08:02:30.528Z,51.55
2018-03-18T08:04:58.299Z,51.17
2018-03-18T08:07:26.052Z,51.56
2018-03-18T08:09:53.686Z,52.23
2018-03-18T08:12:21.883Z,51.27
2018-03-18T08:14:49.442Z,52.87
2018-03-18T08:17:16.967Z,51.19
2018-03-18T08:19:45.596Z,51.99
2018-03-18T08:22:13.192Z,52.97
2018-03-18T08:24:40.714Z,52.94
2018-03-18T08:27:08.295Z,51.73
2018-03-18T08:29:35.875Z,53.00
2018-03-18T08:32:03.404Z,52.89
2018-03-18T08:34:30.904Z,54.18
2018-03-18T08:36:58.418Z,52.75
2018-03-18T08:39:25.966Z,51.86
2018-03-18T08:41:53.616Z,52.80
2018-03-18T08:44:22.426Z,51.34
2018-03-18T08:46:51.499Z,51.44
2018-03-18T08:49:19.510Z,50.50
2018-03-18T08:51:48.101Z,50.60
2018-03-18T08:54:16.534Z,49.67
2018-03-18T08:56:44.913Z,50.42
2018-03-18T08:59:12.436Z,50.75
2018-03-18T09:01:40.026Z,50.02
2018-03-18T09:04:07.527Z,51.25
2018-03-18T09:06:35.643Z,50.86
2018-03-18T09:09:03.147Z,50.87
2018-03-18T09:11:30.707Z,51.65
2018-03-18T09:13:58.247Z,52.22
2018-03-18T09:16:25.805Z,51.84
2018-03-18T09:18:56.412Z,52.13
2018-03-18T09:21:23.925Z,51.30
2018-03-18T09:23:51.482Z,51.29
2018-03-18T09:26:19.196Z,51.57
2018-03-18T09:28:46.722Z,52.46
2018-03-18T09:31:15.195Z,51.50
2018-03-18T09:33:42.955Z,51.44
2018-03-18T09:36:10.501Z,52.81
2018-03-18T09:38:38.062Z,51.62
2018-03-18T09:41:05.587Z,51.67
2018-03-18T09:43:33.292Z,50.80
2018-03-18T09:46:00.951Z,51.24
2018-03-18T09:48:28.515Z,53.14
2018-03-18T09:50:58.092Z,51.51
2018-03-18T09:53:26.124Z,50.81
2018-03-18T09:55:53.849Z,50.47
2018-03-18T09:58:22.334Z,50.04
2018-03-18T10:00:52.688Z,50.71
2018-03-18T10:03:20.195Z,49.18
2018-03-18T10:05:47.727Z,50.56
2018-03-18T10:08:15.366Z,50.28
2018-03-18T10:10:44.336Z,52.30
2018-03-18T10:13:11.859Z,50.10
2018-03-18T10:15:40.245Z,50.15
2018-03-18T10:18:07.815Z,50.78
2018-03-18T10:20:35.328Z,50.03
2018-03-18T10:23:03.077Z,50.73
2018-03-18T10:25:30.626Z,51.02
2018-03-18T10:27:58.132Z,49.44
2018-03-18T10:30:25.654Z,49.49
2018-03-18T10:32:53.209Z,49.47
2018-03-18T10:35:20.700Z,49.31
2018-03-18T10:37:48.259Z,48.36
2018-03-18T10:40:16.112Z,49.16
2018-03-18T10:42:43.746Z,49.56
2018-03-18T10:45:11.279Z,49.95
2018-03-18T10:47:40.669Z,49.67
2018-03-18T10:50:08.492Z,48.49
2018-03-18T10:52:36.299Z,48.59
2018-03-18T10:55:03.873Z,49.99
2018-03-18T10:57:31.592Z,49.09
2018-03-18T10:59:59.222Z,48.46
2018-03-18T11:02:26.763Z,48.17
2018-03-18T11:04:55.075Z,48.00
2018-03-18T11:07:22.626Z,48.17
2018-03-18T11:09:51.217Z,48.33
2018-03-18T11:12:18.725Z,47.43
2018-03-18T11:14:46.233Z,47.39
2018-03-18T11:17:13.767Z,48.69
2018-03-18T11:19:41.284Z,48.55
2018-03-18T11:22:09.140Z,48.70
2018-03-18T11:24:37.207Z,48.49
2018-03-18T11:27:04.726Z,48.00
2018-03-18T11:29:32.218Z,47.29
2018-03-18T11:31:59.726Z,48.37
2018-03-18T11:34:27.245Z,48.18
2018-03-18T11:36:54.886Z,48.50
2018-03-18T11:39:22.422Z,48.19
2018-03-18T11:41:49.934Z,47.12
2018-03-18T11:44:17.450Z,48.71
2018-03-18T11:46:44.967Z,47.24
2018-03-18T11:49:12.488Z,49.05
2018-03-18T11:51:40.824Z,48.29
2018-03-18T11:54:08.387Z,46.26
2018-03-18T11:56:35.979Z,47.58
2018-03-18T11:59:03.582Z,46.12
2018-03-18T12:01:31.120Z,46.77
2018-03-18T12:03:58.621Z,46.11
2018-03-18T12:06:26.214Z,46.08
2018-03-18T12:09:03.673Z,46.36
2018-03-18T12:11:31.196Z,46.39
2018-03-18T12:13:58.729Z,44.66
2018-03-18T12:16:26.229Z,45.80
2018-03-18T12:18:53.786Z,45.80
2018-03-18T12:21:21.308Z,45.64
2018-03-18T12:23:48.876Z,47.08
2018-03-18T12:26:16.385Z,46.28
2018-03-18T12:28:43.916Z,44.88
2018-03-18T12:31:11.437Z,46.07
2018-03-18T12:33:38.948Z,45.99
2018-03-18T12:36:06.462Z,45.67
2018-03-18T12:38:34.049Z,44.87
2018-03-18T12:41:01.573Z,44.91
2018-03-18T12:43:30.126Z,44.94
2018-03-18T12:45:57.665Z,45.43
2018-03-18T12:48:25.212Z,44.46
2018-03-18T12:50:52.818Z,44.19
2018-03-18T12:53:20.344Z,44.72
2018-03-18T12:55:47.859Z,43.38
2018-03-18T12:58:15.392Z,43.77
2018-03-18T13:00:42.964Z,43.69
2018-03-18T13:03:10.492Z,45.09
2018-03-18T13:05:38.001Z,45.35
2018-03-18T13:08:05.536Z,44.91
2018-03-18T13:10:33.147Z,44.10
2018-03-18T13:13:01.172Z,45.85
2018-03-18T13:15:28.715Z,45.79
2018-03-18T13:17:56.215Z,43.61
2018-03-18T13:20:23.747Z,44.09
2018-03-18T13:22:51.249Z,42.64
2018-03-18T13:25:18.831Z,43.00
2018-03-18T13:27:46.320Z,43.62
2018-03-18T13:30:13.848Z,42.95
2018-03-18T13:32:43.737Z,43.02
2018-03-18T13:35:11.307Z,42.62
2018-03-18T13:37:39.147Z,43.30
2018-03-18T13:40:06.695Z,44.40
2018-03-18T13:42:34.256Z,44.40
2018-03-18T13:45:02.208Z,43.78
2018-03-18T13:47:29.728Z,43.46
2018-03-18T13:49:58.078Z,42.04
2018-03-18T13:52:26.343Z,42.38
2018-03-18T13:54:53.840Z,42.03
2018-03-18T13:57:21.465Z,43.21
2018-03-18T13:59:49.007Z,42.88
2018-03-18T14:02:16.607Z,42.07
2018-03-18T14:04:44.181Z,42.07
2018-03-18T14:07:11.891Z,41.97
2018-03-18T14:09:41.225Z,43.21
2018-03-18T14:12:11.525Z,41.59
2018-03-18T14:14:39.097Z,40.76
2018-03-18T14:17:08.439Z,42.31
2018-03-18T14:19:36.497Z,41.20
2018-03-18T14:22:04.017Z,41.05
2018-03-18T14:24:31.576Z,41.04
2018-03-18T14:26:59.103Z,42.34
2018-03-18T14:29:26.711Z,42.83
2018-03-18T14:31:54.642Z,43.01
2018-03-18T14:34:22.157Z,43.11
2018-03-18T14:36:49.896Z,41.71
2018-03-18T14:39:17.434Z,39.90
2018-03-18T14:41:45.273Z,40.57
2018-03-18T14:44:12.824Z,40.19
2018-03-18T14:46:40.365Z,41.55
2018-03-18T14:49:10.739Z,41.83
2018-03-18T14:51:38.253Z,41.19
2018-03-18T14:54:05.776Z,41.69
2018-03-18T14:56:33.417Z,42.11
2018-03-18T14:59:00.955Z,41.28
2018-03-18T15:01:29.162Z,42.12
2018-03-18T15:03:56.660Z,41.08
2018-03-18T15:06:24.270Z,41.33
2018-03-18T15:08:51.809Z,42.04
2018-03-18T15:11:20.181Z,41.61
2018-03-18T15:13:47.696Z,40.74
2018-03-18T15:16:15.209Z,40.25
2018-03-18T15:18:42.709Z,40.86
2018-03-18T15:21:10.241Z,40.22
2018-03-18T15:23:37.858Z,41.40
2018-03-18T15:26:06.111Z,42.21
2018-03-18T15:28:33.956Z,42.26
2018-03-18T15:31:01.569Z,40.24
2018-03-18T15:33:31.926Z,40.97
2018-03-18T15:36:01.133Z,40.75
2018-03-18T15:38:29.655Z,41.36
2018-03-18T15:40:59.564Z,41.50
2018-03-18T15:43:27.264Z,41.47
2018-03-18T15:45:55.843Z,43.47
2018-03-18T15:48:23.532Z,41.67
2018-03-18T15:50:51.941Z,41.35
2018-03-18T15:53:19.526Z,42.16
2018-03-18T15:55:50.315Z,41.76
2018-03-18T15:58:17.963Z,40.58
2018-03-18T16:00:45.444Z,40.75
2018-03-18T16:03:12.944Z,40.96
2018-03-18T16:05:40.447Z,40.09
2018-03-18T16:08:07.953Z,40.99
2018-03-18T16:10:35.461Z,40.62
2018-03-18T16:13:02.983Z,40.35
2018-03-18T16:15:30.479Z,41.15
2018-03-18T16:17:58.130Z,40.94
2018-03-18T16:20:25.734Z,42.12
2018-03-18T16:22:53.265Z,41.66
2018-03-18T16:25:21.430Z,41.83
2018-03-18T16:27:49.108Z,42.18
2018-03-18T16:30:28.313Z,41.95
2018-03-18T16:32:55.998Z,42.15
2018-03-18T16:35:23.514Z,43.00
2018-03-18T16:37:51.017Z,43.38
2018-03-18T16:40:18.542Z,41.73
2018-03-18T16:42:46.302Z,41.78
2018-03-18T16:45:13.834Z,42.62
2018-03-18T16:47:41.363Z,41.77
2018-03-18T16:50:08.907Z,40.93
2018-03-18T16:52:36.963Z,39.83
2018-03-18T16:55:04.463Z,40.80
2018-03-18T16:57:31.983Z,40.60
2018-03-18T16:59:59.488Z,40.42
2018-03-18T17:02:26.996Z,41.23
2018-03-18T17:04:54.683Z,41.63
2018-03-18T17:07:22.240Z,40.64
2018-03-18T17:09:49.855Z,41.97
2018-03-18T17:12:17.493Z,42.23
2018-03-18T17:14:45.001Z,42.67
2018-03-18T17:17:12.517Z,43.31
2018-03-18T17:19:40.084Z,42.62
2018-03-18T17:22:07.589Z,42.99
2018-03-18T17:24:35.128Z,43.51
2018-03-18T17:27:02.664Z,43.96
2018-03-18T17:29:30.424Z,42.99
2018-03-18T17:31:57.964Z,42.45
2018-03-18T17:34:25.531Z,43.13
2018-03-18T17:36:53.031Z,43.37
2018-03-18T17:39:20.591Z,44.10
2018-03-18T17:41:48.131Z,43.33
2018-03-18T17:44:28.374Z,43.86
2018-03-18T17:47:07.721Z,43.12
2018-03-18T17:49:47.096Z,44.04
2018-03-18T17:52:26.482Z,43.46
2018-03-18T17:55:05.763Z,42.91
2018-03-18T17:57:33.293Z,44.08
2018-03-18T18:00:00.793Z,43.32
2018-03-18T18:02:28.351Z,44.41
2018-03-18T18:04:55.985Z,43.98
2018-03-18T18:07:23.554Z,43.47
2018-03-18T18:09:51.085Z,44.43
2018-03-18T18:12:18.592Z,44.21
2018-03-18T18:14:46.215Z,45.36
2018-03-18T18:17:13.752Z,45.31
2018-03-18T18:19:41.265Z,45.89
2018-03-18T18:22:08.796Z,44.55
2018-03-18T18:24:36.333Z,45.70
2018-03-18T18:27:03.841Z,44.59
2018-03-18T18:29:31.374Z,44.91
2018-03-18T18:31:58.906Z,45.26
2018-03-18T18:34:26.445Z,45.82
2018-03-18T18:36:53.947Z,44.72
2018-03-18T18:39:21.618Z,45.37
2018-03-18T18:41:49.179Z,44.76
2018-03-18T18:44:16.708Z,45.35
2018-03-18T18:46:44.828Z,46.07
2018-03-18T18:49:12.416Z,45.67
2018-03-18T18:51:40.063Z,46.52
2018-03-18T18:54:07.655Z,46.31
2018-03-18T18:56:35.431Z,45.62
2018-03-18T18:59:02.994Z,46.07
2018-03-18T19:01:30.635Z,46.50
2018-03-18T19:04:05.365Z,47.57
2018-03-18T19:06:32.984Z,46.92
2018-03-18T19:09:00.737Z,47.50
2018-03-18T19:11:28.287Z,46.49
2018-03-18T19:13:55.807Z,46.81
2018-03-18T19:16:23.455Z,47.11
2018-03-18T19:18:51.123Z,46.64
2018-03-18T19:21:20.193Z,47.22
2018-03-18T19:23:47.747Z,46.65
2018-03-18T19:26:15.298Z,47.42
2018-03-18T19:28:44.064Z,47.64
2018-03-18T19:31:11.671Z,47.24
2018-03-18T19:33:39.257Z,47.83
2018-03-18T19:36:06.843Z,48.24
2018-03-18T19:38:34.428Z,47.61
2018-03-18T19:41:02.000Z,47.58
2018-03-18T19:43:31.071Z,47.19
2018-03-18T19:45:58.696Z,47.52
2018-03-18T19:48:27.177Z,48.90
2018-03-18T19:50:54.771Z,48.18
2018-03-18T19:53:22.408Z,48.66
2018-03-18T19:55:50.005Z,49.73
2018-03-18T19:58:17.647Z,49.64
2018-03-18T20:00:45.252Z,49.87
2018-03-18T20:03:12.822Z,48.69
2018-03-18T20:05:40.482Z,49.44
2018-03-18T20:08:08.132Z,48.94
2018-03-18T20:10:35.815Z,48.61
2018-03-18T20:13:03.466Z,48.88
2018-03-18T20:15:30.982Z,49.17
2018-03-18T20:17:58.651Z,48.90
2018-03-18T20:20:26.547Z,50.02
2018-03-18T20:22:54.107Z,49.75
2018-03-18T20:25:21.690Z,49.80
2018-03-18T20:27:50.248Z,49.43
2018-03-18T20:30:18.136Z,49.52
2018-03-18T20:32:46.133Z,49.38
2018-03-18T20:35:13.855Z,49.41
2018-03-18T20:37:42.316Z,50.04
2018-03-18T20:40:09.817Z,50.55
2018-03-18T20:42:37.713Z,50.04
2018-03-18T20:45:05.566Z,49.30
2018-03-18T20:47:34.329Z,49.31
2018-03-18T20:50:09.163Z,49.43
2018-03-18T20:52:37.708Z,50.21
2018-03-18T20:55:06.615Z,49.48
2018-03-18T20:57:35.334Z,49.78
2018-03-18T21:00:05.587Z,49.95
2018-03-18T21:02:35.713Z,51.69
2018-03-18T21:05:09.946Z,50.17
2018-03-18T21:07:38.344Z,50.13
2018-03-18T21:10:07.133Z,51.77
2018-03-18T21:12:36.862Z,49.86
2018-03-18T21:15:05.625Z,50.18
2018-03-18T21:17:35.491Z,51.00
2018-03-18T21:20:04.135Z,50.44
2018-03-18T21:22:32.078Z,51.63
2018-03-18T21:25:00.561Z,52.52
2018-03-18T21:27:28.446Z,51.00
2018-03-18T21:30:01.347Z,50.99
2018-03-18T21:32:30.846Z,50.76
2018-03-18T21:35:01.455Z,50.58
2018-03-18T21:37:31.081Z,51.31
2018-03-18T21:39:59.849Z,51.26
2018-03-18T21:42:29.165Z,52.48
2018-03-18T21:44:57.730Z,52.27
2018-03-18T21:47:26.410Z,51.22
2018-03-18T21:49:53.989Z,50.63
2018-03-18T21:52:21.522Z,51.01
2018-03-18T21:54:50.594Z,50.96
2018-03-18T21:57:18.865Z,51.49
2018-03-18T21:59:46.442Z,51.60
2018-03-18T22:02:16.778Z,51.45
2018-03-18T22:04:45.189Z,51.70
2018-03-18T22:07:35.563Z,51.46
2018-03-18T22:10:03.225Z,51.13
2018-03-18T22:12:30.803Z,51.54
2018-03-18T22:14:58.352Z,51.53
2018-03-18T22:17:26.349Z,51.41
2018-03-18T22:19:53.868Z,51.26
2018-03-18T22:22:21.558Z,51.68
2018-03-18T22:24:49.097Z,51.84
2018-03-18T22:27:17.764Z,51.96
2018-03-18T22:29:45.417Z,51.71
2018-03-18T22:32:12.925Z,53.80
2018-03-18T22:34:40.481Z,51.71
2018-03-18T22:37:08.017Z,52.54
2018-03-18T22:39:35.634Z,52.38
2018-03-18T22:42:03.238Z,52.91
2018-03-18T22:44:30.829Z,52.36
2018-03-18T22:46:58.341Z,53.98
2018-03-18T22:49:25.971Z,52.28
2018-03-18T22:51:53.564Z,52.51
2018-03-18T22:54:21.109Z,52.01
2018-03-18T22:56:48.619Z,52.54
2018-03-18T22:59:16.173Z,52.96
2018-03-18T23:01:43.687Z,52.20
2018-03-18T23:04:11.253Z,52.41
2018-03-18T23:06:38.835Z,52.38
2018-03-18T23:09:06.358Z,52.62
2018-03-18T23:11:33.918Z,52.77
2018-03-18T23:14:01.492Z,53.27
2018-03-18T23:16:29.034Z,53.04
2018-03-18T23:18:56.572Z,53.16
2018-03-18T23:21:24.124Z,52.79
2018-03-18T23:23:51.617Z,54.22
2018-03-18T23:26:19.133Z,54.43
2018-03-18T23:28:46.651Z,53.39
2018-03-18T23:31:14.226Z,53.63
2018-03-18T23:33:41.735Z,53.74
2018-03-18T23:36:09.270Z,53.52
2018-03-18T23:38:36.808Z,53.53
2018-03-18T23:41:04.409Z,54.55
2018-03-18T23:43:31.905Z,54.88
2018-03-18T23:45:59.449Z,53.66
2018-03-18T23:48:26.970Z,53.94
2018-03-18T23:50:54.483Z,54.31
2018-03-18T23:53:21.989Z,54.50
2018-03-18T23:55:49.488Z,54.98
2018-03-18T23:58:17.033Z,55.36
